Time;durP1;ratioP1;P1;durP2;ratioP2;P2;SDS_P1;SDS_P2;PMS_P1;PMS_P2;Temp;Humidity;BMP_temperature;BMP_pressure;BME280_temperature;BME280_humidity;BME280_pressure;Samples;Min_cycle;Max_cycle;Signal;HPM_P1;HPM_P2
2023/01/11 00:01:02;;;;;;;4.27;1.17;;;6.10;15.00;;;;;;5021225;28;20221;-82
2023/01/11 00:03:29;;;;;;;2.03;0.97;;;6.20;11.80;;;;;;5018457;28;20263;-78
2023/01/11 00:05:56;;;;;;;2.30;1.00;;;6.10;14.30;;;;;;5018865;28;20734;-81
2023/01/11 00:08:25;;;;;;;3.97;1.30;;;6.10;14.80;;;;;;5020285;28;20207;-80
2023/01/11 00:10:51;;;;;;;5.70;1.40;;;6.10;15.10;;;;;;5019396;28;20255;-80
2023/01/11 00:13:16;;;;;;;2.27;1.33;;;6.10;14.30;;;;;;5016536;28;20242;-78
2023/01/11 00:15:42;;;;;;;2.50;0.87;;;6.10;17.10;;;;;;5019942;28;20191;-81
2023/01/11 00:18:08;;;;;;;2.80;0.97;;;6.20;14.90;;;;;;5018899;28;20310;-81
2023/01/11 00:20:37;;;;;;;2.90;1.20;;;6.10;13.40;;;;;;5020312;28;20207;-79
2023/01/11 00:23:03;;;;;;;2.77;1.00;;;6.10;16.30;;;;;;5019438;28;20199;-80
2023/01/11 00:25:28;;;;;;;2.73;1.03;;;6.10;20.20;;;;;;5017335;28;20179;-78
2023/01/11 00:27:54;;;;;;;1.90;0.80;;;6.10;18.30;;;;;;5019555;28;20302;-81
2023/01/11 00:30:20;;;;;;;2.77;0.90;;;6.10;20.10;;;;;;5025048;28;20175;-80
2023/01/11 00:32:45;;;;;;;3.43;1.53;;;6.10;26.80;;;;;;5021583;28;20242;-81
2023/01/11 00:35:11;;;;;;;3.47;1.20;;;6.10;27.70;;;;;;5022092;28;20183;-80
2023/01/11 00:37:37;;;;;;;2.03;0.80;;;6.10;21.50;;;;;;5021249;28;20203;-80
2023/01/11 00:40:03;;;;;;;1.80;0.90;;;6.10;24.10;;;;;;5022137;28;20194;-80
2023/01/11 00:47:59;;;;;;;2.23;0.80;;;6.10;30.60;;;;;;5023304;28;20293;-81
2023/01/11 00:50:29;;;;;;;2.23;0.93;;;6.10;28.90;;;;;;5021075;28;20178;-82
2023/01/11 00:52:55;;;;;;;1.60;0.97;;;6.10;40.70;;;;;;5012894;28;20302;-80
2023/01/11 00:55:20;;;;;;;2.33;0.80;;;6.10;27.20;;;;;;5014141;28;20182;-80
2023/01/11 00:57:46;;;;;;;1.50;0.80;;;6.20;26.00;;;;;;5020016;28;20249;-80
2023/01/11 01:00:12;;;;;;;3.00;1.13;;;6.20;22.50;;;;;;5021858;28;20201;-79
2023/01/11 01:02:38;;;;;;;3.10;1.03;;;6.20;24.30;;;;;;5021825;28;20191;-79
2023/01/11 01:05:04;;;;;;;1.30;0.67;;;6.20;19.00;;;;;;5019162;28;20262;-79
2023/01/11 01:07:29;;;;;;;2.67;0.93;;;6.30;16.20;;;;;;5022604;28;20206;-80
2023/01/11 01:09:55;;;;;;;1.73;0.70;;;6.20;22.20;;;;;;5021520;28;20212;-81
2023/01/11 01:15:05;;;;;;;2.70;1.00;;;6.30;19.90;;;;;;5020751;28;20193;-82
2023/01/11 01:17:31;;;;;;;2.60;1.00;;;6.30;18.20;;;;;;5020311;28;20202;-82
2023/01/11 01:19:56;;;;;;;3.97;1.10;;;6.30;15.40;;;;;;5021399;28;20586;-80
2023/01/11 01:22:22;;;;;;;2.57;0.60;;;6.40;16.60;;;;;;5022116;28;20636;-80
2023/01/11 01:24:47;;;;;;;1.23;0.90;;;6.40;20.50;;;;;;5028836;28;20184;-80
2023/01/11 01:27:16;;;;;;;2.80;0.90;;;6.30;22.30;;;;;;5018118;28;20215;-82
2023/01/11 01:29:45;;;;;;;1.63;0.90;;;6.30;29.30;;;;;;5021579;28;20237;-79
2023/01/11 01:32:10;;;;;;;1.03;0.60;;;6.40;27.10;;;;;;5023401;28;20183;-81
2023/01/11 01:34:36;;;;;;;1.87;0.87;;;6.40;27.90;;;;;;5022913;28;20178;-81
2023/01/11 01:37:06;;;;;;;1.70;0.87;;;6.40;25.40;;;;;;5021821;28;20194;-79
2023/01/11 01:39:32;;;;;;;2.37;1.00;;;6.40;26.30;;;;;;5022277;28;20270;-80
2023/01/11 01:41:58;;;;;;;2.67;0.90;;;6.50;25.00;;;;;;5024416;28;20275;-81
2023/01/11 01:44:52;;;;;;;2.13;0.70;;;6.50;25.20;;;;;;5019074;28;20753;-81
2023/01/11 01:47:21;;;;;;;1.20;0.80;;;6.50;21.60;;;;;;5018608;28;20207;-80
2023/01/11 01:49:46;;;;;;;2.20;0.70;;;6.50;27.30;;;;;;5021944;28;20176;-82
2023/01/11 01:52:12;;;;;;;2.50;0.80;;;6.60;17.20;;;;;;5039717;28;20318;-82
2023/01/11 01:54:44;;;;;;;1.37;1.00;;;6.60;17.00;;;;;;5019829;28;20240;-82
2023/01/11 01:57:16;;;;;;;3.07;0.80;;;6.60;23.20;;;;;;5020788;28;20180;-81
2023/01/11 01:59:41;;;;;;;1.00;0.70;;;6.60;21.10;;;;;;5018326;28;20671;-81
2023/01/11 02:02:07;;;;;;;2.40;0.80;;;6.60;18.80;;;;;;5020514;28;20183;-79
2023/01/11 02:04:38;;;;;;;2.07;0.70;;;6.60;18.90;;;;;;5019822;28;20784;-81
2023/01/11 02:07:15;;;;;;;3.17;1.00;;;6.60;21.10;;;;;;5020460;28;20187;-79
2023/01/11 02:09:51;;;;;;;1.33;0.80;;;6.60;19.90;;;;;;5034506;28;20297;-79
2023/01/11 02:12:18;;;;;;;2.13;0.90;;;6.60;20.10;;;;;;5027423;28;20247;-81
2023/01/11 02:14:46;;;;;;;1.50;0.70;;;6.60;21.10;;;;;;5019992;28;20261;-80
2023/01/11 02:17:12;;;;;;;2.13;0.70;;;6.60;22.60;;;;;;5021109;28;20179;-81
2023/01/11 02:19:56;;;;;;;1.20;0.70;;;6.60;24.90;;;;;;5019725;28;20198;-82
2023/01/11 02:22:53;;;;;;;1.37;0.70;;;6.60;32.10;;;;;;5019084;28;20222;-80
2023/01/11 02:25:31;;;;;;;1.17;0.50;;;6.60;29.50;;;;;;5017149;28;20262;-82
2023/01/11 02:28:02;;;;;;;2.67;0.73;;;6.50;37.60;;;;;;5026589;28;20218;-79
2023/01/11 02:30:46;;;;;;;0.80;0.60;;;6.60;33.90;;;;;;5021713;28;20183;-79
2023/01/11 02:33:23;;;;;;;1.30;0.70;;;6.70;28.80;;;;;;5017345;28;20183;-81
2023/01/11 02:36:07;;;;;;;1.70;0.60;;;6.70;27.10;;;;;;5020711;28;20175;-79
2023/01/11 02:39:06;;;;;;;1.90;0.73;;;6.70;34.40;;;;;;5018205;28;20725;-80
2023/01/11 02:47:30;;;;;;;1.87;0.70;;;6.70;40.20;;;;;;5018128;28;20210;-79
2023/01/11 02:50:08;;;;;;;1.40;0.50;;;6.80;39.60;;;;;;5018589;28;20184;-79
2023/01/11 02:52:44;;;;;;;1.77;0.43;;;6.80;33.80;;;;;;5020643;28;20172;-80
2023/01/11 02:55:12;;;;;;;0.83;0.50;;;6.70;39.60;;;;;;5021854;28;20269;-79
2023/01/11 02:57:39;;;;;;;2.23;0.70;;;6.70;38.00;;;;;;5018709;28;20217;-80
2023/01/11 03:00:05;;;;;;;1.20;0.90;;;6.70;42.40;;;;;;5021828;28;20191;-80
2023/01/11 03:02:31;;;;;;;0.80;0.60;;;6.70;42.70;;;;;;5022772;28;20180;-79
2023/01/11 03:04:56;;;;;;;1.60;0.87;;;6.80;44.70;;;;;;5019235;28;20174;-81
2023/01/11 03:07:56;;;;;;;0.87;0.50;;;6.90;41.10;;;;;;5017431;28;20203;-80
2023/01/11 03:10:57;;;;;;;2.47;0.57;;;6.80;43.60;;;;;;5018419;28;20676;-79
2023/01/11 03:13:35;;;;;;;1.07;0.80;;;6.90;36.90;;;;;;5019914;28;20581;-79
2023/01/11 03:16:24;;;;;;;0.93;0.50;;;6.90;42.80;;;;;;5033835;28;20175;-79
2023/01/11 03:19:11;;;;;;;0.87;0.60;;;7.00;35.40;;;;;;5033286;28;20214;-79
2023/01/11 03:21:55;;;;;;;1.20;0.50;;;7.10;31.50;;;;;;5018074;28;20222;-80
2023/01/11 03:24:39;;;;;;;1.07;0.63;;;7.10;35.40;;;;;;5017700;28;20237;-79
2023/01/11 03:27:32;;;;;;;1.33;0.50;;;7.10;31.90;;;;;;5016834;28;20724;-80
2023/01/11 03:30:10;;;;;;;0.90;0.73;;;7.10;37.50;;;;;;5018326;28;20183;-79
2023/01/11 03:32:50;;;;;;;1.93;0.60;;;7.10;38.60;;;;;;5017577;28;20663;-78
2023/01/11 03:36:01;;;;;;;2.30;0.80;;;7.10;35.60;;;;;;5016669;28;20190;-79
2023/01/11 03:38:35;;;;;;;1.00;0.70;;;7.20;34.00;;;;;;4968917;28;20210;-79
2023/01/11 03:41:06;;;;;;;2.03;0.70;;;7.10;40.30;;;;;;5016557;28;20199;-79
2023/01/11 03:43:34;;;;;;;1.07;0.70;;;7.10;43.80;;;;;;5031231;28;20178;-80
2023/01/11 03:46:16;;;;;;;1.07;0.63;;;7.10;46.50;;;;;;5014379;28;20182;-78
2023/01/11 03:49:09;;;;;;;1.77;0.60;;;7.00;50.30;;;;;;5028937;28;20323;-78
2023/01/11 03:51:41;;;;;;;0.80;0.53;;;7.00;46.70;;;;;;5014578;28;20670;-79
2023/01/11 03:54:09;;;;;;;1.20;0.70;;;7.10;55.90;;;;;;5022429;28;20175;-79
2023/01/11 03:56:51;;;;;;;1.80;0.60;;;7.00;60.10;;;;;;5015724;28;20268;-78
2023/01/11 03:59:17;;;;;;;1.00;0.70;;;7.00;69.50;;;;;;5014002;28;20204;-81
2023/01/11 04:01:43;;;;;;;2.47;0.80;;;7.10;67.90;;;;;;5014260;28;20192;-79
2023/01/11 04:04:09;;;;;;;2.70;0.70;;;7.30;60.00;;;;;;5015393;28;20187;-78
2023/01/11 04:06:36;;;;;;;1.30;0.70;;;7.20;56.20;;;;;;5014784;28;20190;-78
2023/01/11 04:09:03;;;;;;;1.60;1.07;;;7.20;60.10;;;;;;5014657;28;20292;-81
2023/01/11 04:11:29;;;;;;;2.40;0.83;;;7.10;68.80;;;;;;5014928;28;20225;-82
2023/01/11 04:13:54;;;;;;;1.83;0.70;;;7.20;71.40;;;;;;5013582;28;20178;-79
2023/01/11 04:16:20;;;;;;;1.80;0.80;;;7.10;75.70;;;;;;5015936;28;20690;-78
2023/01/11 04:18:46;;;;;;;1.17;0.60;;;7.10;82.20;;;;;;5015097;28;20211;-80
2023/01/11 04:21:11;;;;;;;2.53;0.67;;;8.20;72.40;;;;;;5016014;28;20749;-78
2023/01/11 04:23:37;;;;;;;1.40;0.70;;;7.20;76.20;;;;;;5015220;28;20179;-79
2023/01/11 04:26:02;;;;;;;1.17;0.50;;;7.30;66.80;;;;;;5014720;28;20241;-79
2023/01/11 04:28:28;;;;;;;2.40;0.60;;;7.30;57.30;;;;;;5015544;28;20583;-80
2023/01/11 04:30:53;;;;;;;0.93;0.50;;;7.20;56.60;;;;;;5014576;28;20897;-79
2023/01/11 04:33:19;;;;;;;1.07;0.70;;;7.30;82.20;;;;;;5013963;28;20175;-79
2023/01/11 04:35:45;;;;;;;1.27;0.57;;;7.20;76.30;;;;;;5016194;28;20214;-78
2023/01/11 04:38:10;;;;;;;1.00;0.70;;;7.20;85.40;;;;;;5015965;28;20269;-79
2023/01/11 04:40:36;;;;;;;1.40;0.60;;;7.30;82.60;;;;;;5015149;28;20183;-82
2023/01/11 04:43:02;;;;;;;2.50;0.67;;;7.30;76.50;;;;;;5016104;28;20191;-81
2023/01/11 04:45:29;;;;;;;1.47;0.60;;;7.40;90.70;;;;;;5014434;28;20194;-78
2023/01/11 04:47:56;;;;;;;1.77;0.80;;;7.80;69.80;;;;;;5015665;28;20215;-78
2023/01/11 04:50:23;;;;;;;0.80;0.60;;;7.40;65.70;;;;;;5013826;28;20641;-79
2023/01/11 04:52:49;;;;;;;1.43;0.70;;;7.40;66.40;;;;;;5031403;28;20757;-81
2023/01/11 04:55:15;;;;;;;0.80;0.53;;;7.40;73.80;;;;;;5015787;28;20198;-79
2023/01/11 04:57:42;;;;;;;1.13;0.80;;;7.50;70.90;;;;;;5016410;28;20286;-78
2023/01/11 05:00:09;;;;;;;1.77;0.70;;;7.70;55.80;;;;;;5017980;28;20553;-82
2023/01/11 05:02:36;;;;;;;0.83;0.60;;;7.70;53.70;;;;;;5018479;28;20183;-80
2023/01/11 05:05:03;;;;;;;1.83;0.70;;;7.70;50.80;;;;;;5017902;28;20185;-81
2023/01/11 05:07:28;;;;;;;1.63;0.90;;;7.70;52.90;;;;;;5017915;28;20208;-80
2023/01/11 05:09:54;;;;;;;1.60;0.70;;;7.70;50.90;;;;;;5017161;28;20180;-79
2023/01/11 05:12:20;;;;;;;2.43;0.90;;;7.70;51.10;;;;;;5018391;28;20179;-79
2023/01/11 05:14:45;;;;;;;1.87;0.80;;;7.70;48.00;;;;;;5019555;28;20175;-82
2023/01/11 05:17:15;;;;;;;1.67;0.60;;;7.80;50.30;;;;;;5019477;28;20191;-81
2023/01/11 05:19:41;;;;;;;1.77;0.80;;;7.80;46.90;;;;;;5020623;28;20563;-79
2023/01/11 05:22:07;;;;;;;1.10;0.60;;;7.70;50.30;;;;;;5019910;28;20213;-81
2023/01/11 05:24:32;;;;;;;3.13;0.70;;;7.70;54.60;;;;;;5016897;28;20191;-80
2023/01/11 05:26:58;;;;;;;0.90;0.63;;;7.70;55.40;;;;;;5017297;28;20186;-79
2023/01/11 05:29:24;;;;;;;1.00;0.67;;;7.70;60.00;;;;;;5020239;28;20236;-79
2023/01/11 05:31:49;;;;;;;0.73;0.60;;;7.70;62.20;;;;;;5021095;28;20241;-80
2023/01/11 05:34:16;;;;;;;1.30;0.70;;;7.70;56.20;;;;;;5019435;28;20249;-79
2023/01/11 05:36:42;;;;;;;2.07;0.70;;;7.80;54.20;;;;;;5027485;28;20589;-80
2023/01/11 05:39:10;;;;;;;3.00;0.80;;;7.80;54.60;;;;;;5020101;28;20215;-79
2023/01/11 05:41:36;;;;;;;1.40;0.80;;;7.80;54.20;;;;;;5019093;28;20786;-79
2023/01/11 05:46:46;;;;;;;1.40;0.80;;;7.80;57.30;;;;;;5020956;28;20802;-79
2023/01/11 05:49:13;;;;;;;1.43;0.63;;;7.80;65.10;;;;;;5021036;28;20227;-78
2023/01/11 05:51:39;;;;;;;1.43;0.60;;;7.80;56.20;;;;;;5018320;28;20187;-78
2023/01/11 05:54:06;;;;;;;1.53;0.80;;;7.70;55.90;;;;;;5019131;28;20558;-79
2023/01/11 05:56:32;;;;;;;3.63;1.23;;;7.80;69.40;;;;;;5018324;28;20661;-79
2023/01/11 05:58:57;;;;;;;2.13;0.50;;;7.70;72.00;;;;;;5020569;28;20204;-79
2023/01/11 06:01:24;;;;;;;1.33;0.70;;;7.80;71.00;;;;;;5019933;28;20195;-79
2023/01/11 06:03:49;;;;;;;1.13;0.60;;;7.80;71.70;;;;;;5019325;28;20274;-79
2023/01/11 06:06:16;;;;;;;2.03;1.23;;;7.80;75.80;;;;;;5020091;28;20228;-82
2023/01/11 06:08:42;;;;;;;0.97;0.80;;;7.70;80.90;;;;;;5019664;28;20210;-80
2023/01/11 06:11:07;;;;;;;1.93;0.67;;;7.70;91.30;;;;;;5019394;28;20849;-78
2023/01/11 06:13:33;;;;;;;1.50;0.70;;;7.70;91.30;;;;;;5020575;28;20187;-84
2023/01/11 06:16:08;;;;;;;1.43;0.70;;;7.70;88.00;;;;;;5017559;28;20187;-79
2023/01/11 06:18:36;;;;;;;5.40;0.90;;;7.80;91.20;;;;;;5020471;28;20325;-79
2023/01/11 06:21:03;;;;;;;0.80;0.60;;;7.80;83.70;;;;;;5019721;28;20648;-80
2023/01/11 06:23:31;;;;;;;2.00;0.53;;;7.90;82.40;;;;;;5017854;28;20329;-80
2023/01/11 06:26:04;;;;;;;0.63;0.60;;;8.00;86.10;;;;;;5017388;28;20187;-80
2023/01/11 06:28:30;;;;;;;0.97;0.60;;;8.00;85.80;;;;;;5035174;28;20215;-80
2023/01/11 06:30:57;;;;;;;0.90;0.57;;;8.00;87.00;;;;;;5019458;28;20227;-79
2023/01/11 06:33:24;;;;;;;0.40;0.40;;;8.00;86.50;;;;;;5019406;28;20175;-80
2023/01/11 06:35:51;;;;;;;0.50;0.40;;;8.00;90.20;;;;;;5016669;28;20183;-80
2023/01/11 06:38:18;;;;;;;0.60;0.50;;;8.10;79.30;;;;;;5018900;28;20218;-80
2023/01/11 06:40:54;;;;;;;0.80;0.50;;;8.10;75.00;;;;;;5026676;28;20240;-80
2023/01/11 06:43:21;;;;;;;1.00;0.50;;;8.10;72.10;;;;;;5019369;28;20202;-80
2023/01/11 06:45:47;;;;;;;1.93;0.67;;;8.10;74.20;;;;;;5020144;28;20195;-81
2023/01/11 06:48:13;;;;;;;4.27;3.17;;;8.10;77.70;;;;;;5017781;28;20215;-80
2023/01/11 06:50:38;;;;;;;2.40;1.67;;;8.10;90.10;;;;;;5019479;28;20222;-79
2023/01/11 06:53:04;;;;;;;3.47;2.40;;;8.10;94.50;;;;;;5019111;28;20633;-79
2023/01/11 06:55:29;;;;;;;2.43;2.07;;;8.30;90.80;;;;;;5017382;28;20187;-80
2023/01/11 06:57:55;;;;;;;4.40;3.10;;;6.80;81.50;;;;;;5017726;28;21300;-79
2023/01/11 07:00:21;;;;;;;1.00;0.60;;;8.30;75.70;;;;;;5017421;28;20200;-81
2023/01/11 07:02:47;;;;;;;1.20;1.00;;;8.30;94.70;;;;;;5017213;28;20190;-79
2023/01/11 07:05:14;;;;;;;0.90;0.70;;;8.30;75.20;;;;;;5018746;28;20546;-81
2023/01/11 07:07:40;;;;;;;1.17;0.90;;;8.30;84.40;;;;;;5026106;28;20431;-79
2023/01/11 07:10:11;;;;;;;1.70;0.70;;;8.20;96.80;;;;;;5019644;28;20215;-81
2023/01/11 07:12:37;;;;;;;0.63;0.53;;;8.30;98.70;;;;;;5018069;28;20206;-79
2023/01/11 07:15:05;;;;;;;0.50;0.50;;;8.30;88.60;;;;;;5020267;28;20187;-79
2023/01/11 07:17:31;;;;;;;1.17;0.60;;;8.30;99.90;;;;;;5017586;28;20532;-83
2023/01/11 07:19:56;;;;;;;0.60;0.60;;;8.30;99.90;;;;;;5019972;28;20254;-78
2023/01/11 07:22:22;;;;;;;1.10;0.43;;;8.30;99.90;;;;;;5015931;28;20223;-80
2023/01/11 07:24:49;;;;;;;0.77;0.47;;;8.20;99.90;;;;;;5017593;28;20274;-82
2023/01/11 07:27:14;;;;;;;1.03;0.57;;;8.30;99.90;;;;;;5024930;28;20215;-80
2023/01/11 07:29:40;;;;;;;0.50;0.50;;;8.20;99.90;;;;;;5020659;28;20308;-79
2023/01/11 07:32:07;;;;;;;0.73;0.60;;;8.20;99.90;;;;;;5019741;28;20190;-82
2023/01/11 07:34:33;;;;;;;0.70;0.60;;;8.20;99.90;;;;;;5064385;22;20749;-77
2023/01/11 07:36:58;;;;;;;1.23;0.43;;;8.20;99.90;;;;;;5061898;28;20213;-79
2023/01/11 07:39:24;;;;;;;0.97;0.50;;;8.20;99.90;;;;;;5042482;28;20201;-77
2023/01/11 07:44:34;;;;;;;0.80;0.60;;;8.10;99.90;;;;;;5040638;28;20193;-78
2023/01/11 07:47:00;;;;;;;1.00;0.60;;;8.20;1.00;;;;;;5039391;28;20190;-76
2023/01/11 07:49:26;;;;;;;0.70;0.50;;;8.20;1.00;;;;;;5038939;28;20218;-79
2023/01/11 07:51:52;;;;;;;1.07;0.50;;;8.20;1.00;;;;;;5042995;28;20182;-77
2023/01/11 07:54:18;;;;;;;1.17;0.50;;;8.10;1.00;;;;;;5036718;28;20828;-79
2023/01/11 07:56:43;;;;;;;1.33;0.57;;;8.10;1.00;;;;;;5041630;28;20200;-77
2023/01/11 07:59:09;;;;;;;1.10;0.60;;;8.20;1.00;;;;;;5040707;28;20202;-80
2023/01/11 08:01:35;;;;;;;0.60;0.60;;;8.10;1.00;;;;;;5042041;28;20686;-80
2023/01/11 08:04:01;;;;;;;0.50;0.50;;;8.20;1.00;;;;;;5040834;28;20182;-78
2023/01/11 08:06:27;;;;;;;0.57;0.40;;;8.10;1.00;;;;;;5040372;28;20206;-78
2023/01/11 08:08:52;;;;;;;1.40;0.60;;;8.10;1.00;;;;;;5043199;28;20214;-78
2023/01/11 08:16:46;;;;;;;0.90;0.60;;;8.10;1.00;;;;;;5046550;28;20181;-80
2023/01/11 08:19:12;;;;;;;0.83;0.50;;;8.10;81.60;;;;;;5045170;28;20206;-78
2023/01/11 08:21:37;;;;;;;0.60;0.43;;;8.10;89.70;;;;;;5043373;28;20232;-78
2023/01/11 08:24:03;;;;;;;0.40;0.40;;;8.10;71.20;;;;;;5045591;28;20261;-78
2023/01/11 08:26:29;;;;;;;0.87;0.40;;;8.10;99.90;;;;;;5044747;28;20194;-78
2023/01/11 08:28:54;;;;;;;0.87;0.50;;;8.10;99.90;;;;;;5044397;28;20244;-78
2023/01/11 08:31:20;;;;;;;1.20;1.10;;;8.10;99.90;;;;;;5042602;28;20684;-80
2023/01/11 08:33:47;;;;;;;1.23;1.00;;;8.20;99.90;;;;;;5045090;28;20233;-77
2023/01/11 08:36:13;;;;;;;3.10;2.10;;;8.20;99.90;;;;;;5043383;28;20190;-79
2023/01/11 08:38:39;;;;;;;1.53;1.07;;;8.20;99.90;;;;;;5044346;28;20202;-78
2023/01/11 08:41:12;;;;;;;1.30;0.70;;;8.30;99.90;;;;;;5043584;28;20190;-78
2023/01/11 08:43:42;;;;;;;1.77;1.40;;;8.30;99.90;;;;;;5045092;28;20247;-79
2023/01/11 08:46:08;;;;;;;2.10;1.80;;;8.30;35.10;;;;;;5043295;28;20194;-79
2023/01/11 08:48:34;;;;;;;2.33;1.60;;;8.30;99.90;;;;;;5044327;28;20753;-79
2023/01/11 08:51:00;;;;;;;2.33;1.50;;;8.40;99.90;;;;;;5047331;28;20714;-80
2023/01/11 08:53:26;;;;;;;0.83;0.63;;;8.30;99.90;;;;;;5046893;28;20242;-79
2023/01/11 08:55:53;;;;;;;1.97;0.90;;;8.20;99.90;;;;;;5047360;28;20182;-80
2023/01/11 08:58:20;;;;;;;2.80;2.07;;;10.10;99.90;;;;;;5048017;28;20260;-79
2023/01/11 09:00:46;;;;;;;2.40;1.80;;;8.20;99.90;;;;;;5048622;28;20209;-78
2023/01/11 09:03:12;;;;;;;1.33;1.10;;;8.30;1.00;;;;;;5045965;28;20196;-80
2023/01/11 09:05:39;;;;;;;0.90;0.60;;;8.50;99.90;;;;;;5045529;28;20189;-79
2023/01/11 09:08:06;;;;;;;0.90;0.60;;;8.30;99.90;;;;;;5047466;28;20214;-80
2023/01/11 09:10:32;;;;;;;1.73;1.33;;;8.40;99.90;;;;;;5047296;28;20729;-79
2023/01/11 09:12:58;;;;;;;0.70;0.70;;;8.40;99.90;;;;;;5047416;28;20186;-79
2023/01/11 09:15:24;;;;;;;1.10;0.60;;;8.40;99.90;;;;;;5045616;28;20178;-80
2023/01/11 09:17:51;;;;;;;1.13;0.77;;;8.40;99.90;;;;;;5054543;28;20567;-80
2023/01/11 09:20:18;;;;;;;0.50;0.50;;;8.40;99.90;;;;;;5048202;28;20625;-79
2023/01/11 09:22:48;;;;;;;1.23;0.80;;;8.40;99.90;;;;;;5048128;28;20182;-78
2023/01/11 09:25:14;;;;;;;0.53;0.40;;;8.40;99.90;;;;;;5047430;28;21220;-79
2023/01/11 09:27:46;;;;;;;0.93;0.90;;;8.40;99.90;;;;;;5047616;28;20199;-79
2023/01/11 09:30:14;;;;;;;2.33;0.47;;;8.40;99.90;;;;;;5049102;28;20182;-78
2023/01/11 09:32:40;;;;;;;0.40;0.40;;;8.50;99.90;;;;;;5048488;28;20187;-79
2023/01/11 09:35:06;;;;;;;0.33;0.30;;;8.50;99.90;;;;;;5047039;28;20255;-78
2023/01/11 09:37:34;;;;;;;0.97;0.70;;;8.50;99.90;;;;;;5047552;28;20202;-78
2023/01/11 09:40:00;;;;;;;0.40;0.40;;;8.50;99.90;;;;;;5046436;28;20186;-78
2023/01/11 09:42:38;;;;;;;0.93;0.40;;;8.50;99.90;;;;;;5048245;28;20806;-80
2023/01/11 09:45:26;;;;;;;0.30;0.30;;;8.50;99.90;;;;;;5048404;28;20247;-78
2023/01/11 09:48:02;;;;;;;0.40;0.40;;;8.50;99.90;;;;;;5043598;28;20235;-79
2023/01/11 09:50:30;;;;;;;0.30;0.30;;;8.50;99.90;;;;;;5044587;28;20182;-78
2023/01/11 09:53:07;;;;;;;0.30;0.30;;;8.50;99.90;;;;;;5039017;28;20186;-79
2023/01/11 09:55:36;;;;;;;1.20;0.40;;;8.50;99.90;;;;;;5044921;28;20182;-78
2023/01/11 09:58:04;;;;;;;0.33;0.30;;;8.50;99.90;;;;;;5043603;28;20250;-78
2023/01/11 10:00:50;;;;;;;0.30;0.30;;;8.60;99.90;;;;;;5041228;28;20217;-78
2023/01/11 10:03:43;;;;;;;0.30;0.30;;;8.50;51.90;;;;;;5041119;28;20259;-79
2023/01/11 10:06:18;;;;;;;1.00;0.30;;;8.50;99.90;;;;;;5041828;28;20198;-79
2023/01/11 10:08:57;;;;;;;1.33;0.30;;;8.50;99.90;;;;;;5046780;28;20597;-78
2023/01/11 10:11:41;;;;;;;0.53;0.40;;;8.50;99.90;;;;;;5037901;28;20190;-78
2023/01/11 10:14:32;;;;;;;1.03;0.30;;;8.50;1.00;;;;;;5048585;28;20181;-78
2023/01/11 10:17:27;;;;;;;1.50;0.40;;;8.50;1.00;;;;;;5046235;28;20244;-79
2023/01/11 10:20:00;;;;;;;0.70;0.50;;;8.50;99.90;;;;;;5042187;28;20186;-79
2023/01/11 10:22:35;;;;;;;1.30;0.50;;;8.60;99.90;;;;;;5043912;28;20869;-79
2023/01/11 10:25:02;;;;;;;1.30;0.90;;;8.50;1.00;;;;;;5042879;28;20190;-79
2023/01/11 10:27:37;;;;;;;1.57;1.13;;;8.50;1.00;;;;;;5043405;28;20293;-80
2023/01/11 10:33:21;;;;;;;2.00;1.20;;;8.60;99.90;;;;;;5043613;28;20191;-80
2023/01/11 10:39:26;;;;;;;0.50;0.50;;;8.60;1.00;;;;;;5043625;28;20224;-79
2023/01/11 10:42:03;;;;;;;2.00;1.20;;;8.60;1.00;;;;;;5043350;28;20184;-78
2023/01/11 10:44:42;;;;;;;1.17;0.80;;;8.60;99.90;;;;;;5042965;28;20218;-79
2023/01/11 10:47:16;;;;;;;0.83;0.60;;;8.60;1.00;;;;;;5039614;28;20189;-80
2023/01/11 10:49:58;;;;;;;0.50;0.40;;;8.60;1.00;;;;;;5043117;28;20241;-80
2023/01/11 10:52:37;;;;;;;0.53;0.40;;;8.60;1.00;;;;;;5041215;28;20648;-79
2023/01/11 10:55:19;;;;;;;0.70;0.50;;;8.60;1.00;;;;;;5042358;28;20209;-79
2023/01/11 10:57:54;;;;;;;0.73;0.50;;;8.60;1.00;;;;;;5041630;28;20209;-79
2023/01/11 11:00:37;;;;;;;0.60;0.50;;;8.60;1.00;;;;;;5042215;28;20185;-79
2023/01/11 11:03:31;;;;;;;0.30;0.30;;;8.60;1.00;;;;;;5042943;28;20189;-79
2023/01/11 11:06:12;;;;;;;0.30;0.30;;;8.60;99.90;;;;;;5040897;28;20190;-79
2023/01/11 11:09:01;;;;;;;0.87;0.50;;;8.60;1.00;;;;;;5041653;28;20931;-79
2023/01/11 11:11:30;;;;;;;0.60;0.60;;;8.60;1.00;;;;;;5037114;28;20198;-79
2023/01/11 11:14:13;;;;;;;0.63;0.40;;;8.60;99.90;;;;;;5039407;28;20351;-81
2023/01/11 11:17:12;;;;;;;1.07;0.50;;;8.60;99.90;;;;;;5040815;28;20188;-79
2023/01/11 11:19:38;;;;;;;0.40;0.40;;;8.60;33.70;;;;;;5018934;28;20187;-79
2023/01/11 11:22:03;;;;;;;0.30;0.30;;;8.60;99.90;;;;;;5031005;28;20183;-78
2023/01/11 11:24:32;;;;;;;0.50;0.30;;;8.70;99.90;;;;;;5046872;28;21167;-78
2023/01/11 11:27:07;;;;;;;0.50;0.27;;;8.70;15.10;;;;;;5047585;28;20228;-81
2023/01/11 11:29:40;;;;;;;0.33;0.33;;;8.70;1.00;;;;;;5046016;28;20729;-79
2023/01/11 11:32:17;;;;;;;0.53;0.30;;;8.80;1.00;;;;;;5048385;28;20190;-79
2023/01/11 11:34:50;;;;;;;0.30;0.30;;;8.70;1.00;;;;;;5047093;28;20308;-79
2023/01/11 11:37:30;;;;;;;0.57;0.30;;;8.70;1.00;;;;;;5047808;28;20194;-80
2023/01/11 11:39:56;;;;;;;0.40;0.40;;;8.70;1.00;;;;;;5046236;28;20672;-79
2023/01/11 11:42:23;;;;;;;0.30;0.30;;;8.80;1.00;;;;;;5046314;28;20181;-79
2023/01/11 11:45:09;;;;;;;0.37;0.37;;;8.70;1.00;;;;;;5046864;28;20183;-80
2023/01/11 11:47:36;;;;;;;0.60;0.47;;;8.80;1.00;;;;;;5045739;28;20989;-80
2023/01/11 11:50:18;;;;;;;0.43;0.37;;;8.80;1.00;;;;;;5046713;28;20300;-80
2023/01/11 11:52:51;;;;;;;0.53;0.30;;;8.80;1.00;;;;;;5046517;28;20178;-80
2023/01/11 11:55:22;;;;;;;0.33;0.30;;;8.80;1.00;;;;;;5046724;28;20244;-80
2023/01/11 11:57:48;;;;;;;0.30;0.20;;;8.80;1.00;;;;;;5046427;28;20202;-80
2023/01/11 12:00:28;;;;;;;0.30;0.30;;;8.80;1.00;;;;;;5046781;28;20242;-80
2023/01/11 12:03:10;;;;;;;0.43;0.40;;;8.80;1.00;;;;;;5046845;28;20259;-79
2023/01/11 12:05:36;;;;;;;0.30;0.30;;;8.80;1.00;;;;;;5045519;28;20190;-79
2023/01/11 12:08:02;;;;;;;0.47;0.40;;;8.80;1.00;;;;;;5045798;28;20217;-79
2023/01/11 12:10:30;;;;;;;1.17;0.40;;;8.80;1.00;;;;;;5046583;28;20198;-79
2023/01/11 12:13:00;;;;;;;0.30;0.30;;;8.80;1.00;;;;;;5046432;28;20190;-80
2023/01/11 12:15:31;;;;;;;0.40;0.40;;;8.80;1.00;;;;;;5046357;28;20213;-80
2023/01/11 12:18:22;;;;;;;0.40;0.40;;;8.80;1.00;;;;;;5044862;28;20266;-79
2023/01/11 12:20:48;;;;;;;0.53;0.40;;;8.90;1.00;;;;;;5045382;28;20190;-78
2023/01/11 12:23:23;;;;;;;0.50;0.43;;;8.80;1.00;;;;;;5044045;28;20561;-80
2023/01/11 12:26:09;;;;;;;0.83;0.60;;;8.80;1.00;;;;;;5045216;28;20265;-79
2023/01/11 12:28:35;;;;;;;0.80;0.53;;;8.80;1.00;;;;;;5046490;28;20336;-78
2023/01/11 12:31:36;;;;;;;1.00;0.70;;;8.80;1.00;;;;;;5046012;28;21234;-78
2023/01/11 12:34:17;;;;;;;0.73;0.40;;;8.80;1.00;;;;;;5035886;28;20209;-80
2023/01/11 12:36:52;;;;;;;0.53;0.50;;;8.80;1.00;;;;;;5052762;28;20190;-78
2023/01/11 12:39:37;;;;;;;0.47;0.47;;;8.70;1.00;;;;;;5046577;28;20224;-79
2023/01/11 12:42:34;;;;;;;0.70;0.60;;;8.70;1.00;;;;;;5045899;28;20194;-81
2023/01/11 12:45:24;;;;;;;1.20;0.77;;;8.70;1.00;;;;;;5034210;28;20198;-78
2023/01/11 12:48:22;;;;;;;0.50;0.50;;;8.70;83.80;;;;;;5044396;28;20281;-78
2023/01/11 12:50:57;;;;;;;1.33;0.80;;;9.40;1.00;;;;;;5011106;28;20199;-80
2023/01/11 12:54:12;;;;;;;0.73;0.73;;;8.70;1.00;;;;;;5044978;28;20202;-80
2023/01/11 12:57:03;;;;;;;0.70;0.70;;;8.70;1.00;;;;;;4993812;28;20674;-76
2023/01/11 13:00:06;;;;;;;0.63;0.57;;;8.80;1.00;;;;;;5037154;28;20226;-77
2023/01/11 13:02:50;;;;;;;0.70;0.70;;;8.80;1.00;;;;;;5043040;28;20190;-77
2023/01/11 13:05:36;;;;;;;0.80;0.80;;;8.80;1.00;;;;;;5042357;28;20839;-78
2023/01/11 13:08:14;;;;;;;1.10;1.00;;;8.80;1.00;;;;;;5042822;28;20291;-77
2023/01/11 13:10:53;;;;;;;1.33;0.90;;;8.80;1.00;;;;;;5042514;28;20185;-77
2023/01/11 13:13:20;;;;;;;1.07;0.93;;;8.70;1.00;;;;;;5051502;28;20706;-78
2023/01/11 13:15:55;;;;;;;1.00;0.90;;;8.80;80.10;;;;;;5033290;28;20551;-78
2023/01/11 13:18:34;;;;;;;0.97;0.80;;;8.70;51.40;;;;;;5050254;28;20205;-77
2023/01/11 13:21:31;;;;;;;1.00;0.90;;;8.70;28.10;;;;;;5043144;28;20186;-78
2023/01/11 13:24:12;;;;;;;1.43;0.80;;;8.70;99.90;;;;;;5024482;28;20293;-78
2023/01/11 13:26:41;;;;;;;1.43;0.90;;;8.70;99.90;;;;;;5041653;28;20216;-77
2023/01/11 13:29:19;;;;;;;0.70;0.70;;;8.70;99.90;;;;;;5042988;28;20226;-78
2023/01/11 13:31:47;;;;;;;1.20;1.00;;;8.70;99.90;;;;;;5041022;28;20186;-78
2023/01/11 13:34:28;;;;;;;1.93;1.50;;;8.70;99.90;;;;;;5040588;28;20204;-77
2023/01/11 13:37:02;;;;;;;1.37;1.00;;;8.70;99.90;;;;;;5043338;28;20186;-79
2023/01/11 13:39:30;;;;;;;1.80;0.90;;;8.60;1.00;;;;;;5044952;28;20212;-78
2023/01/11 13:42:17;;;;;;;1.03;1.00;;;8.60;99.90;;;;;;5029041;28;20480;-78
2023/01/11 13:44:50;;;;;;;1.00;0.90;;;8.70;51.60;;;;;;5037414;28;20205;-78
2023/01/11 13:47:32;;;;;;;1.20;1.00;;;8.70;99.00;;;;;;5041434;28;20719;-78
2023/01/11 13:50:02;;;;;;;0.90;0.90;;;8.70;48.70;;;;;;5045224;28;20202;-78
2023/01/11 13:52:59;;;;;;;1.17;1.07;;;8.70;1.00;;;;;;5043696;28;20197;-78
2023/01/11 13:55:57;;;;;;;1.20;0.90;;;8.80;1.00;;;;;;5033955;28;20186;-77